createdAt,value
2018-01-19T00:00:44.163Z,21.30
2018-01-19T00:03:11.714Z,15.93
2018-01-19T00:05:39.255Z,13.40
2018-01-19T00:08:06.844Z,12.10
2018-01-19T00:10:34.383Z,19.40
2018-01-19T00:13:01.923Z,17.37
2018-01-19T00:15:29.462Z,18.63
2018-01-19T00:17:57.022Z,21.73
2018-01-19T00:20:24.662Z,18.50
2018-01-19T00:22:52.258Z,18.90
2018-01-19T00:25:19.798Z,13.67
2018-01-19T00:27:47.420Z,13.80
2018-01-19T00:30:14.966Z,11.67
2018-01-19T00:32:42.511Z,9.70
2018-01-19T00:35:10.109Z,9.97
2018-01-19T00:37:37.651Z,12.60
2018-01-19T00:40:05.203Z,14.17
2018-01-19T00:42:32.737Z,17.10
2018-01-19T00:45:00.284Z,17.67
2018-01-19T00:47:27.883Z,17.03
2018-01-19T00:49:55.471Z,13.00
2018-01-19T00:52:23.098Z,14.20
2018-01-19T00:54:50.645Z,12.77
2018-01-19T00:57:18.202Z,13.03
2018-01-19T00:59:45.750Z,9.00
2018-01-19T01:02:13.293Z,9.57
2018-01-19T01:04:40.834Z,12.03
2018-01-19T01:07:08.410Z,13.40
2018-01-19T01:09:35.954Z,14.00
2018-01-19T01:12:03.489Z,12.03
2018-01-19T01:14:31.043Z,11.50
2018-01-19T01:16:58.586Z,16.47
2018-01-19T01:19:26.139Z,25.47
2018-01-19T01:21:53.673Z,15.10
2018-01-19T01:24:21.250Z,12.43
2018-01-19T01:26:48.798Z,11.93
2018-01-19T01:29:16.330Z,9.00
2018-01-19T01:31:43.886Z,11.17
2018-01-19T01:34:11.504Z,11.70
2018-01-19T01:36:39.050Z,12.47
2018-01-19T01:39:06.678Z,15.40
2018-01-19T01:41:34.270Z,17.20
2018-01-19T01:44:01.808Z,25.03
2018-01-19T01:46:29.407Z,16.23
2018-01-19T01:49:08.702Z,11.10
2018-01-19T01:51:36.242Z,8.83
2018-01-19T01:54:03.802Z,12.57
2018-01-19T01:56:31.450Z,15.30
2018-01-19T01:58:59.054Z,14.67
2018-01-19T02:01:26.656Z,11.10
2018-01-19T02:03:54.245Z,9.70
2018-01-19T02:06:21.854Z,8.03
2018-01-19T02:08:49.435Z,7.50
2018-01-19T02:11:17.047Z,5.13
2018-01-19T02:13:44.646Z,5.50
2018-01-19T02:16:12.286Z,4.73
2018-01-19T02:18:39.825Z,5.10
2018-01-19T02:21:07.362Z,4.63
2018-01-19T02:23:34.994Z,4.87
2018-01-19T02:26:02.525Z,5.10
2018-01-19T02:28:30.105Z,5.40
2018-01-19T02:30:57.787Z,6.00
2018-01-19T02:33:25.323Z,9.70
2018-01-19T02:35:52.906Z,11.33
2018-01-19T02:38:20.455Z,14.53
2018-01-19T02:40:48.005Z,15.43
2018-01-19T02:43:15.546Z,12.07
2018-01-19T02:45:43.130Z,10.90
2018-01-19T02:48:10.726Z,11.73
2018-01-19T02:50:38.278Z,10.20
2018-01-19T02:53:05.831Z,13.20
2018-01-19T02:55:33.366Z,12.87
2018-01-19T02:58:00.978Z,13.90
2018-01-19T03:00:28.571Z,20.40
2018-01-19T03:02:56.110Z,15.87
2018-01-19T03:05:23.650Z,14.20
2018-01-19T03:07:51.278Z,12.30
2018-01-19T03:10:18.867Z,10.73
2018-01-19T03:12:46.401Z,8.70
2018-01-19T03:15:13.946Z,7.80
2018-01-19T03:17:41.548Z,6.00
2018-01-19T03:20:09.142Z,7.77
2018-01-19T03:22:36.786Z,5.43
2018-01-19T03:25:04.380Z,4.83
2018-01-19T03:27:31.978Z,4.83
2018-01-19T03:29:59.586Z,5.60
2018-01-19T03:32:27.174Z,5.17
2018-01-19T03:34:54.780Z,5.70
2018-01-19T03:37:22.314Z,4.83
2018-01-19T03:39:49.942Z,4.20
2018-01-19T03:42:17.477Z,5.63
2018-01-19T03:44:45.006Z,5.47
2018-01-19T03:47:12.708Z,5.10
2018-01-19T03:49:40.241Z,5.13
2018-01-19T03:52:07.834Z,5.90
2018-01-19T03:54:35.374Z,7.60
2018-01-19T03:57:02.954Z,7.83
2018-01-19T03:59:30.492Z,8.63
2018-01-19T04:01:58.026Z,8.90
2018-01-19T04:04:25.632Z,10.80
2018-01-19T04:06:53.234Z,13.93
2018-01-19T04:09:20.786Z,7.20
2018-01-19T04:11:48.321Z,6.57
2018-01-19T04:14:16.290Z,5.80
2018-01-19T04:16:43.823Z,5.80
2018-01-19T04:19:11.407Z,4.27
2018-01-19T04:21:39.001Z,4.10
2018-01-19T04:24:06.554Z,3.90
2018-01-19T04:26:34.141Z,4.33
2018-01-19T04:29:01.675Z,3.97
2018-01-19T04:31:29.328Z,3.40
2018-01-19T04:33:56.922Z,3.00
2018-01-19T04:36:24.926Z,3.63
2018-01-19T04:38:52.475Z,3.57
2018-01-19T04:41:20.015Z,7.50
2018-01-19T04:43:47.671Z,16.30
2018-01-19T04:46:15.209Z,17.87
2018-01-19T04:48:42.795Z,17.20
2018-01-19T04:51:10.414Z,16.97
2018-01-19T04:53:37.979Z,13.20
2018-01-19T04:56:05.531Z,11.73
2018-01-19T04:58:33.122Z,5.43
2018-01-19T05:01:00.657Z,2.97
2018-01-19T05:03:28.186Z,2.67
2018-01-19T05:05:55.762Z,2.93
2018-01-19T05:08:23.362Z,4.33
2018-01-19T05:10:50.894Z,4.50
2018-01-19T05:13:18.491Z,4.13
2018-01-19T05:15:46.080Z,2.60
2018-01-19T05:18:13.617Z,3.80
2018-01-19T05:20:41.150Z,7.37
2018-01-19T05:23:08.784Z,7.30
2018-01-19T05:25:36.310Z,9.60
2018-01-19T05:28:03.841Z,9.87
2018-01-19T05:30:31.378Z,4.40
2018-01-19T05:32:58.902Z,2.90
2018-01-19T05:35:26.434Z,3.07
2018-01-19T05:37:54.012Z,4.07
2018-01-19T05:40:21.666Z,5.37
2018-01-19T05:42:49.193Z,8.10
2018-01-19T05:45:16.717Z,7.40
2018-01-19T05:47:44.320Z,8.00
2018-01-19T05:50:11.850Z,11.40
2018-01-19T05:52:39.430Z,7.17
2018-01-19T05:55:06.961Z,6.80
2018-01-19T05:57:42.622Z,9.23
2018-01-19T06:00:10.245Z,8.10
2018-01-19T06:02:39.400Z,12.13
2018-01-19T06:05:07.741Z,9.30
2018-01-19T06:07:35.269Z,8.37
2018-01-19T06:10:02.869Z,79.80
2018-01-19T06:12:30.566Z,94.57
2018-01-19T06:14:58.106Z,53.23
2018-01-19T06:17:25.827Z,65.60
2018-01-19T06:19:53.691Z,138.67
2018-01-19T06:22:22.191Z,35.17
2018-01-19T06:24:49.782Z,13.87
2018-01-19T06:27:17.386Z,8.20
2018-01-19T06:29:44.935Z,8.40
2018-01-19T06:32:12.504Z,7.60
2018-01-19T06:34:40.038Z,9.80
2018-01-19T06:37:07.592Z,10.10
2018-01-19T06:39:35.155Z,7.60
2018-01-19T06:42:02.963Z,11.30
2018-01-19T06:44:30.563Z,12.23
2018-01-19T06:46:58.152Z,6.93
2018-01-19T06:49:25.737Z,9.00
2018-01-19T06:51:54.278Z,5.60
2018-01-19T06:54:22.610Z,6.23
2018-01-19T06:56:50.257Z,4.80
2018-01-19T06:59:20.856Z,4.17
2018-01-19T07:01:49.329Z,5.00
2018-01-19T07:04:16.962Z,5.63
2018-01-19T07:06:44.494Z,6.70
2018-01-19T07:09:12.823Z,17.60
2018-01-19T07:11:40.466Z,17.20
2018-01-19T07:14:08.138Z,4.60
2018-01-19T07:16:35.678Z,8.97
2018-01-19T07:19:03.300Z,9.47
2018-01-19T07:21:30.938Z,4.40
2018-01-19T07:23:58.969Z,23.60
2018-01-19T07:26:26.935Z,19.17
2018-01-19T07:28:54.691Z,7.43
2018-01-19T07:31:25.118Z,3.53
2018-01-19T07:33:53.728Z,33.20
2018-01-19T07:36:21.452Z,9.40
2018-01-19T07:38:49.099Z,4.30
2018-01-19T07:41:16.645Z,8.87
2018-01-19T07:43:44.347Z,7.70
2018-01-19T07:46:12.665Z,6.20
2018-01-19T07:48:41.038Z,6.27
2018-01-19T07:51:08.665Z,2.83
2018-01-19T07:53:37.111Z,2.70
2018-01-19T07:56:04.910Z,11.07
2018-01-19T07:58:32.598Z,3.67
2018-01-19T08:01:00.142Z,9.73
2018-01-19T08:03:27.762Z,4.70
2018-01-19T08:05:56.146Z,4.17
2018-01-19T08:08:27.551Z,5.20
2018-01-19T08:10:56.028Z,3.90
2018-01-19T08:13:23.630Z,3.73
2018-01-19T08:15:51.294Z,3.47
2018-01-19T08:18:18.914Z,2.87
2018-01-19T08:20:47.510Z,3.13
2018-01-19T08:23:15.200Z,5.43
2018-01-19T08:25:42.732Z,5.97
2018-01-19T08:28:10.694Z,4.80
2018-01-19T08:30:38.270Z,5.70
2018-01-19T08:33:05.874Z,3.40
2018-01-19T08:35:33.471Z,3.03
2018-01-19T08:38:01.006Z,6.37
2018-01-19T08:40:29.783Z,4.67
2018-01-19T08:42:57.310Z,3.20
2018-01-19T08:45:25.283Z,2.40
2018-01-19T08:47:52.867Z,2.20
2018-01-19T08:50:20.394Z,2.83
2018-01-19T08:52:47.998Z,2.10
2018-01-19T08:55:15.606Z,4.80
2018-01-19T08:57:43.146Z,2.93
2018-01-19T09:00:10.742Z,2.80
2018-01-19T09:02:38.265Z,2.40
2018-01-19T09:05:05.862Z,4.80
2018-01-19T09:07:36.393Z,3.50
2018-01-19T09:10:03.966Z,4.37
2018-01-19T09:12:31.502Z,4.63
2018-01-19T09:15:01.091Z,6.47
2018-01-19T09:17:30.009Z,9.57
2018-01-19T09:19:57.573Z,12.70
2018-01-19T09:22:25.190Z,15.00
2018-01-19T09:24:52.798Z,12.67
2018-01-19T09:27:21.386Z,9.50
2018-01-19T09:29:48.925Z,8.97
2018-01-19T09:32:16.608Z,8.10
2018-01-19T09:34:44.317Z,8.87
2018-01-19T09:37:11.949Z,11.90
2018-01-19T09:39:39.550Z,9.80
2018-01-19T09:42:07.111Z,8.83
2018-01-19T09:44:34.715Z,9.33
2018-01-19T09:47:02.425Z,10.03
2018-01-19T09:49:30.174Z,9.60
2018-01-19T09:51:57.762Z,9.63
2018-01-19T09:54:25.310Z,8.93
2018-01-19T09:56:53.579Z,8.67
2018-01-19T09:59:22.082Z,8.93
2018-01-19T10:01:49.629Z,8.93
2018-01-19T10:04:17.578Z,9.00
2018-01-19T10:06:46.232Z,19.23
2018-01-19T10:09:13.865Z,9.63
2018-01-19T10:11:42.114Z,9.57
2018-01-19T10:14:09.734Z,7.90
2018-01-19T10:16:37.285Z,9.50
2018-01-19T10:19:04.850Z,9.50
2018-01-19T10:21:34.206Z,7.80
2018-01-19T10:24:01.850Z,8.50
2018-01-19T10:26:30.513Z,8.23
2018-01-19T10:28:58.069Z,6.70
2018-01-19T10:31:25.694Z,6.30
2018-01-19T10:33:54.056Z,7.47
2018-01-19T10:36:21.666Z,10.47
2018-01-19T10:38:50.294Z,9.43
2018-01-19T10:41:19.382Z,9.20
2018-01-19T10:43:47.150Z,7.43
2018-01-19T10:46:21.510Z,5.90
2018-01-19T10:48:49.565Z,5.37
2018-01-19T10:51:17.178Z,4.83
2018-01-19T10:53:44.719Z,5.20
2018-01-19T10:56:13.212Z,5.40
2018-01-19T10:58:41.525Z,8.07
2018-01-19T11:01:09.952Z,4.97
2018-01-19T11:03:37.761Z,5.00
2018-01-19T11:06:06.527Z,5.73
2018-01-19T11:08:34.139Z,6.50
2018-01-19T11:11:02.694Z,7.50
2018-01-19T11:13:30.878Z,6.10
2018-01-19T11:15:58.562Z,4.80
2018-01-19T11:18:26.118Z,5.67
2018-01-19T11:20:54.135Z,4.90
2018-01-19T11:23:21.830Z,5.70
2018-01-19T11:25:49.482Z,6.00
2018-01-19T11:28:17.090Z,5.40
2018-01-19T11:30:44.622Z,5.67
2018-01-19T11:33:12.223Z,5.33
2018-01-19T11:35:39.777Z,5.20
2018-01-19T11:38:08.219Z,5.17
2018-01-19T11:40:35.755Z,4.73
2018-01-19T11:43:03.802Z,6.20
2018-01-19T11:45:32.417Z,6.53
2018-01-19T11:48:00.043Z,10.40
2018-01-19T11:50:28.396Z,12.60
2018-01-19T11:52:55.946Z,12.10
2018-01-19T11:55:24.366Z,11.83
2018-01-19T11:57:51.897Z,9.60
2018-01-19T12:00:19.484Z,13.67
2018-01-19T12:02:47.036Z,11.00
2018-01-19T12:05:15.303Z,28.80
2018-01-19T12:07:42.910Z,11.43
2018-01-19T12:10:10.506Z,8.33
2018-01-19T12:12:38.206Z,8.70
2018-01-19T12:15:05.854Z,8.70
2018-01-19T12:17:34.689Z,5.50
2018-01-19T12:20:03.174Z,6.03
2018-01-19T12:22:32.369Z,4.90
2018-01-19T12:24:59.965Z,3.93
2018-01-19T12:27:28.179Z,4.20
2018-01-19T12:29:55.766Z,4.90
2018-01-19T12:32:24.254Z,4.90
2018-01-19T12:34:51.846Z,4.10
2018-01-19T12:37:21.842Z,3.30
2018-01-19T12:39:49.411Z,3.37
2018-01-19T12:42:17.926Z,2.90
2018-01-19T12:44:45.542Z,3.43
2018-01-19T12:47:16.650Z,4.30
2018-01-19T12:49:45.330Z,3.50
2018-01-19T12:52:12.874Z,3.20
2018-01-19T12:54:41.334Z,2.50
2018-01-19T12:57:09.594Z,5.00
2018-01-19T12:59:37.835Z,16.80
2018-01-19T13:02:05.475Z,14.90
2018-01-19T13:04:33.091Z,27.33
2018-01-19T13:07:00.744Z,4.40
2018-01-19T13:09:28.533Z,3.70
2018-01-19T13:11:56.194Z,4.43
2018-01-19T13:14:23.786Z,2.73
2018-01-19T13:16:51.328Z,5.90
2018-01-19T13:19:18.867Z,3.70
2018-01-19T13:21:46.395Z,4.00
2018-01-19T13:24:14.033Z,2.93
2018-01-19T13:26:41.562Z,4.10
2018-01-19T13:29:09.182Z,4.40
2018-01-19T13:31:36.805Z,9.33
2018-01-19T13:34:04.511Z,2.90
2018-01-19T13:36:32.183Z,3.30
2018-01-19T13:39:00.592Z,3.30
2018-01-19T13:41:28.211Z,3.20
2018-01-19T13:43:55.830Z,3.07
2018-01-19T13:46:26.993Z,2.20
2018-01-19T13:48:54.578Z,2.70
2018-01-19T13:51:22.177Z,7.40
2018-01-19T13:53:49.890Z,4.30
2018-01-19T13:56:17.502Z,3.23
2018-01-19T13:58:45.162Z,5.90
2018-01-19T14:01:13.521Z,2.50
2018-01-19T14:03:41.466Z,4.70
2018-01-19T14:06:09.089Z,3.37
2018-01-19T14:08:36.947Z,7.87
2018-01-19T14:11:04.593Z,4.70
2018-01-19T14:13:32.326Z,4.50
2018-01-19T14:16:01.670Z,4.03
2018-01-19T14:18:30.769Z,4.63
2018-01-19T14:20:58.313Z,10.27
2018-01-19T14:23:27.386Z,21.13
2018-01-19T14:25:54.930Z,12.50
2018-01-19T14:28:22.824Z,8.30
2018-01-19T14:30:50.426Z,8.47
2018-01-19T14:33:18.688Z,13.80
2018-01-19T14:35:46.352Z,9.17
2018-01-19T14:38:13.985Z,17.50
2018-01-19T14:40:43.306Z,18.10
2018-01-19T14:43:10.854Z,20.17
2018-01-19T14:45:38.458Z,14.93
2018-01-19T14:48:06.842Z,17.37
2018-01-19T14:50:34.448Z,20.30
2018-01-19T14:53:02.046Z,39.73
2018-01-19T14:55:30.262Z,41.20
2018-01-19T14:57:57.935Z,53.17
2018-01-19T15:00:26.282Z,64.63
2018-01-19T15:02:53.927Z,68.07
2018-01-19T15:05:21.550Z,73.37
2018-01-19T15:07:49.169Z,55.77
2018-01-19T15:10:16.754Z,49.53
2018-01-19T15:12:44.454Z,45.73
2018-01-19T15:15:12.066Z,47.57
2018-01-19T15:17:39.658Z,56.20
2018-01-19T15:20:07.283Z,61.27
2018-01-19T15:22:34.892Z,57.97
2018-01-19T15:25:02.505Z,70.10
2018-01-19T15:27:30.138Z,77.87
2018-01-19T15:29:57.713Z,98.53
2018-01-19T15:32:26.016Z,77.63
2018-01-19T15:34:53.615Z,63.00
2018-01-19T15:37:22.349Z,58.83
2018-01-19T15:39:50.054Z,52.27
2018-01-19T15:42:18.620Z,54.73
2018-01-19T15:44:46.349Z,49.30
2018-01-19T15:47:14.629Z,51.40
2018-01-19T15:49:42.225Z,57.90
2018-01-19T15:52:09.855Z,56.77
2018-01-19T15:54:37.482Z,62.50
2018-01-19T15:57:05.367Z,68.57
2018-01-19T15:59:33.831Z,90.90
2018-01-19T16:02:01.450Z,76.10
2018-01-19T16:04:29.057Z,69.90
2018-01-19T16:06:56.658Z,96.00
2018-01-19T16:09:24.314Z,72.73
2018-01-19T16:11:52.502Z,68.30
2018-01-19T16:14:20.070Z,70.53
2018-01-19T16:16:47.623Z,89.83
2018-01-19T16:19:15.222Z,91.67
2018-01-19T16:21:42.802Z,102.07
2018-01-19T16:24:10.385Z,85.13
2018-01-19T16:26:37.922Z,72.10
2018-01-19T16:29:05.484Z,124.90
2018-01-19T16:31:33.903Z,94.13
2018-01-19T16:34:01.587Z,90.73
2018-01-19T16:36:29.132Z,79.23
2018-01-19T16:38:56.764Z,88.43
2018-01-19T16:41:24.382Z,82.57
2018-01-19T16:43:51.974Z,100.60
2018-01-19T16:46:19.622Z,93.27
2018-01-19T16:48:47.177Z,84.90
2018-01-19T16:51:14.775Z,70.80
2018-01-19T16:53:42.480Z,74.20
2018-01-19T16:56:10.019Z,70.77
2018-01-19T16:58:37.647Z,71.73
2018-01-19T17:01:05.927Z,68.40
2018-01-19T17:03:34.263Z,62.97
2018-01-19T17:06:01.802Z,65.60
2018-01-19T17:08:29.344Z,86.80
2018-01-19T17:10:56.948Z,92.73
2018-01-19T17:13:24.604Z,90.47
2018-01-19T17:15:52.215Z,87.63
2018-01-19T17:18:19.762Z,73.33
2018-01-19T17:20:47.350Z,59.67
2018-01-19T17:23:14.957Z,86.10
2018-01-19T17:25:42.558Z,87.37
2018-01-19T17:28:10.518Z,86.07
2018-01-19T17:30:38.129Z,78.43
2018-01-19T17:33:05.731Z,76.43
2018-01-19T17:35:33.302Z,68.20
2018-01-19T17:38:00.978Z,59.03
2018-01-19T17:40:28.569Z,83.43
2018-01-19T17:42:56.155Z,74.13
2018-01-19T17:45:23.762Z,88.77
2018-01-19T17:47:51.350Z,102.07
2018-01-19T17:50:18.897Z,98.20
2018-01-19T17:52:46.511Z,100.13
2018-01-19T17:55:14.158Z,98.07
2018-01-19T17:57:42.975Z,102.73
2018-01-19T18:00:10.667Z,108.10
2018-01-19T18:02:38.222Z,104.40
2018-01-19T18:05:05.875Z,88.07
2018-01-19T18:07:33.433Z,91.20
2018-01-19T18:10:00.986Z,99.47
2018-01-19T18:12:28.534Z,93.50
2018-01-19T18:14:56.081Z,83.30
2018-01-19T18:17:23.621Z,81.67
2018-01-19T18:19:51.167Z,68.73
2018-01-19T18:22:19.634Z,45.77
2018-01-19T18:24:47.247Z,61.77
2018-01-19T18:27:14.790Z,53.90
2018-01-19T18:29:42.341Z,56.80
2018-01-19T18:32:09.882Z,79.33
2018-01-19T18:34:37.435Z,64.93
2018-01-19T18:37:04.981Z,79.80
2018-01-19T18:39:32.561Z,110.10
2018-01-19T18:42:00.162Z,103.90
2018-01-19T18:44:28.585Z,88.00
2018-01-19T18:46:56.143Z,96.57
2018-01-19T18:49:23.755Z,104.60
2018-01-19T18:51:51.310Z,78.77
2018-01-19T18:54:18.851Z,72.30
2018-01-19T18:56:46.402Z,55.63
2018-01-19T18:59:14.067Z,80.90
2018-01-19T19:01:41.618Z,77.77
2018-01-19T19:04:09.343Z,63.40
2018-01-19T19:06:36.958Z,67.27
2018-01-19T19:09:04.677Z,60.07
2018-01-19T19:11:32.278Z,93.30
2018-01-19T19:13:59.830Z,108.47
2018-01-19T19:16:27.658Z,94.40
2018-01-19T19:18:55.241Z,89.10
2018-01-19T19:21:22.903Z,106.40
2018-01-19T19:23:50.550Z,121.30
2018-01-19T19:26:18.291Z,146.60
2018-01-19T19:28:45.842Z,127.73
2018-01-19T19:31:13.418Z,119.83
2018-01-19T19:33:41.029Z,128.37
2018-01-19T19:36:08.572Z,149.77
2018-01-19T19:38:36.178Z,142.97
2018-01-19T19:41:03.735Z,113.80
2018-01-19T19:43:32.404Z,114.10
2018-01-19T19:46:00.053Z,133.07
2018-01-19T19:48:27.613Z,126.30
2018-01-19T19:50:56.146Z,124.33
2018-01-19T19:53:23.757Z,118.67
2018-01-19T19:55:51.366Z,113.73
2018-01-19T19:58:19.014Z,115.00
2018-01-19T20:00:46.627Z,117.77
2018-01-19T20:03:14.175Z,103.83
2018-01-19T20:05:41.779Z,76.13
2018-01-19T20:08:09.390Z,94.70
2018-01-19T20:10:36.937Z,81.10
2018-01-19T20:13:04.543Z,88.17
2018-01-19T20:15:32.447Z,79.77
2018-01-19T20:17:59.998Z,85.00
2018-01-19T20:20:27.586Z,114.83
2018-01-19T20:22:55.181Z,108.67
2018-01-19T20:25:23.602Z,82.70
2018-01-19T20:27:51.359Z,94.67
2018-01-19T20:30:19.026Z,89.17
2018-01-19T20:32:46.732Z,87.77
2018-01-19T20:35:14.486Z,95.03
2018-01-19T20:37:42.122Z,86.40
2018-01-19T20:40:09.694Z,90.37
2018-01-19T20:42:37.238Z,85.97
2018-01-19T20:45:04.974Z,105.90
2018-01-19T20:47:32.622Z,131.17
2018-01-19T20:50:00.230Z,109.93
2018-01-19T20:52:27.856Z,94.07
2018-01-19T20:54:55.430Z,88.93
2018-01-19T20:57:23.278Z,78.53
2018-01-19T20:59:50.926Z,100.47
2018-01-19T21:02:18.685Z,99.50
2018-01-19T21:04:46.234Z,71.83
2018-01-19T21:07:14.890Z,66.43
2018-01-19T21:09:42.550Z,71.43
2018-01-19T21:12:10.356Z,70.50
2018-01-19T21:14:37.938Z,52.67
2018-01-19T21:17:05.493Z,45.97
2018-01-19T21:19:33.093Z,48.80
2018-01-19T21:22:00.699Z,67.73
2018-01-19T21:24:28.989Z,80.10
2018-01-19T21:26:56.550Z,78.30
2018-01-19T21:29:24.107Z,73.67
2018-01-19T21:31:51.675Z,47.87
2018-01-19T21:34:19.275Z,54.30
2018-01-19T21:36:46.874Z,48.00
2018-01-19T21:39:14.487Z,42.80
2018-01-19T21:41:42.086Z,44.10
2018-01-19T21:44:11.090Z,41.07
2018-01-19T21:46:39.494Z,43.30
2018-01-19T21:49:07.170Z,41.03
2018-01-19T21:51:34.709Z,43.77
2018-01-19T21:54:02.407Z,46.17
2018-01-19T21:56:30.013Z,40.00
2018-01-19T21:58:57.560Z,46.33
2018-01-19T22:01:26.091Z,50.37
2018-01-19T22:03:53.642Z,45.47
2018-01-19T22:06:21.188Z,48.00
2018-01-19T22:08:48.832Z,47.70
2018-01-19T22:11:16.479Z,42.30
2018-01-19T22:13:44.023Z,45.03
2018-01-19T22:16:11.574Z,47.33
2018-01-19T22:18:39.195Z,64.70
2018-01-19T22:21:13.750Z,64.73
2018-01-19T22:23:41.949Z,67.90
2018-01-19T22:26:09.757Z,64.73
2018-01-19T22:28:37.362Z,70.30
2018-01-19T22:31:04.907Z,70.50
2018-01-19T22:33:32.506Z,69.37
2018-01-19T22:36:00.254Z,64.40
2018-01-19T22:38:28.211Z,62.03
2018-01-19T22:40:55.818Z,68.57
2018-01-19T22:43:24.249Z,70.93
2018-01-19T22:45:51.842Z,61.93
2018-01-19T22:48:19.923Z,59.07
2018-01-19T22:50:47.542Z,53.37
2018-01-19T22:53:15.102Z,56.63
2018-01-19T22:55:42.724Z,55.50
2018-01-19T22:58:10.337Z,55.67
2018-01-19T23:00:37.946Z,55.73
2018-01-19T23:03:05.608Z,52.77
2018-01-19T23:05:33.210Z,54.50
2018-01-19T23:08:00.978Z,52.53
2018-01-19T23:10:28.594Z,52.17
2018-01-19T23:12:56.288Z,50.47
2018-01-19T23:15:23.834Z,59.20
2018-01-19T23:17:51.623Z,65.80
2018-01-19T23:20:19.305Z,61.97
2018-01-19T23:22:46.910Z,59.80
2018-01-19T23:25:14.580Z,61.73
2018-01-19T23:27:42.179Z,46.80
2018-01-19T23:30:09.743Z,54.53
2018-01-19T23:32:37.514Z,51.40
2018-01-19T23:35:05.126Z,37.67
2018-01-19T23:37:32.897Z,26.73
2018-01-19T23:40:00.498Z,38.70
2018-01-19T23:42:28.114Z,36.37
2018-01-19T23:44:55.756Z,18.43
2018-01-19T23:47:23.606Z,22.90
2018-01-19T23:49:51.161Z,17.43
2018-01-19T23:52:18.702Z,18.13
2018-01-19T23:54:46.302Z,35.70
2018-01-19T23:57:14.718Z,27.90
2018-01-19T23:59:42.312Z,22.60
